Forside
METAR-TAF:

METAR-TAF

Lufthavne :

Mason City Municipal Airport

Mason City, Iowa, USA

Breddekreds: 43-09-28N, længdekreds: 093-19-53W, højde: 370 m

Aktuelle vejr

Denne rapport blev lavet for 30 minutter siden, kl. 17:53 UTC
Vind 9 kt fra vest
Temperatur 5°C
Fugtighed 60%
Tryk 1014 hPa
Sigt: 16.1 km
skyfri

METAR: KMCW 231753Z AUTO 27009KT 10SM CLR 05/M02 A2995 RMK AO2 SLP145 T00501022 10050 21022 53006

Tid: 12:23 (18:23 UTC)

Vejrudsigter

Denne rapport blev lavet for 1 time og 2 minutter siden, kl. 17:21 UTC
Foreløbig gælder fra 23 på 18 UTC til 24 på 18 UTC
Vind 12 kt fra vest
Sigt: 10 km
skyfri
Fra 23 på 2000 UTC
Vind 11 kt fra nordvest
Sigt: 10 km
Nogle få skyer i en højde af 25000 ft
Fra 24 på 1700 UTC
Vind 7 kt fra øst
Sigt: 10 km
Brudte skyer i en højde af 9000 ft

TAF: KMCW 231721Z 2318/2418 28012KT P6SM SKC FM232000 31011KT P6SM FEW250 FM241700 08007KT P6SM BKN090

Vejrobservationer og prognoser fra mere end 4000 lufthavne (METAR og TAF).

De gule og røde prikker repræsenterer de meteorologiske stationer.

Flyt musen over at se navnet på stationen.

Så klik over at se vejr observationer og prognoser.

At skifte det kort: Klik på de grønne knapper med et sort kors for at zoome ind; på den grønne knap med en bindestreg for at zoome ud; eller på de grønne pile for tilstødende kort.


METAR-TAF: